Time;durP1;ratioP1;P1;durP2;ratioP2;P2;SDS_P1;SDS_P2;PMS_P1;PMS_P2;Temp;Humidity;BMP_temperature;BMP_pressure;BME280_temperature;BME280_humidity;BME280_pressure;Samples;Min_cycle;Max_cycle;Signal;HPM_P1;HPM_P2
2021/07/12 00:01:18;;;;;;;5.82;4.65;;;18.80;99.90;;;;;;5055992;28;20337;-84
2021/07/12 00:03:44;;;;;;;5.00;3.83;;;18.90;99.90;;;;;;5074557;28;20248;-83
2021/07/12 00:06:09;;;;;;;3.88;3.58;;;18.90;99.90;;;;;;5069825;28;20187;-84
2021/07/12 00:08:35;;;;;;;6.15;3.70;;;18.90;99.90;;;;;;5073539;28;20182;-84
2021/07/12 00:11:00;;;;;;;10.48;4.07;;;18.90;99.90;;;;;;5073598;28;20171;-84
2021/07/12 00:13:26;;;;;;;5.35;4.30;;;18.80;99.90;;;;;;5055661;28;20171;-84
2021/07/12 00:15:52;;;;;;;4.03;3.58;;;18.80;99.90;;;;;;5038450;28;20186;-83
2021/07/12 00:18:17;;;;;;;6.50;3.92;;;18.80;99.90;;;;;;5073385;28;20175;-86
2021/07/12 00:20:43;;;;;;;4.85;4.45;;;18.80;99.90;;;;;;5056269;28;20289;-84
2021/07/12 00:23:09;;;;;;;5.55;3.90;;;18.80;99.90;;;;;;5093467;28;20231;-84
2021/07/12 00:25:34;;;;;;;7.50;3.85;;;18.80;99.90;;;;;;5054992;28;20248;-84
2021/07/12 00:28:00;;;;;;;4.05;3.75;;;18.80;99.90;;;;;;5055300;28;20580;-83
2021/07/12 00:30:27;;;;;;;7.30;3.72;;;18.80;99.90;;;;;;5073311;28;20190;-84
2021/07/12 00:32:53;;;;;;;6.57;3.42;;;18.70;99.90;;;;;;5073289;28;20167;-84
2021/07/12 00:35:19;;;;;;;4.72;4.13;;;18.70;99.90;;;;;;5053360;28;20534;-84
2021/07/12 00:37:45;;;;;;;7.35;4.00;;;18.70;99.90;;;;;;5093302;28;20173;-84
2021/07/12 00:40:15;;;;;;;7.90;4.20;;;18.80;99.90;;;;;;5091930;28;20300;-84
2021/07/12 00:42:41;;;;;;;7.90;4.22;;;18.70;99.90;;;;;;5075133;28;20573;-83
2021/07/12 00:45:10;;;;;;;6.10;4.18;;;18.80;99.90;;;;;;5092474;28;20181;-84
2021/07/12 00:47:36;;;;;;;4.65;4.25;;;18.80;99.90;;;;;;5082635;28;20166;-84
2021/07/12 00:50:05;;;;;;;5.88;3.85;;;18.80;99.90;;;;;;5058597;28;20181;-84
2021/07/12 00:52:31;;;;;;;5.95;3.80;;;18.80;99.90;;;;;;5075146;28;20628;-83
2021/07/12 00:54:57;;;;;;;4.20;3.80;;;18.90;99.90;;;;;;5062342;28;20182;-84
2021/07/12 00:57:22;;;;;;;4.20;3.90;;;18.90;99.90;;;;;;5056929;28;20670;-84
2021/07/12 00:59:50;;;;;;;6.22;4.50;;;18.80;99.90;;;;;;5074852;28;20611;-84
2021/07/12 01:02:16;;;;;;;10.73;4.30;;;18.80;99.90;;;;;;5056397;28;20187;-85
2021/07/12 01:04:41;;;;;;;5.90;4.20;;;18.80;99.90;;;;;;5057332;28;20189;-84
2021/07/12 01:07:10;;;;;;;6.85;3.83;;;18.80;99.90;;;;;;5094395;28;20175;-83
2021/07/12 01:09:37;;;;;;;9.65;3.58;;;18.90;99.90;;;;;;5087553;28;20174;-84
2021/07/12 01:12:38;;;;;;;10.85;4.03;;;18.80;99.90;;;;;;5059245;28;20166;-84
2021/07/12 01:15:04;;;;;;;6.57;3.55;;;18.80;99.90;;;;;;5076776;28;20170;-84
2021/07/12 01:17:54;;;;;;;5.75;3.72;;;18.70;99.90;;;;;;5076500;28;20178;-84
2021/07/12 01:21:03;;;;;;;5.88;3.60;;;18.60;99.90;;;;;;5058692;28;20187;-83
2021/07/12 01:23:53;;;;;;;5.68;3.88;;;18.60;99.90;;;;;;5077341;28;20175;-84
2021/07/12 01:26:49;;;;;;;8.68;3.75;;;18.60;99.90;;;;;;5076552;28;20182;-83
2021/07/12 01:29:37;;;;;;;4.70;4.13;;;18.60;99.90;;;;;;5066718;28;20305;-84
2021/07/12 01:32:25;;;;;;;5.15;4.40;;;18.70;99.90;;;;;;5076190;28;20537;-84
2021/07/12 01:34:57;;;;;;;10.18;4.25;;;18.70;99.90;;;;;;5093985;28;20170;-84
2021/07/12 01:38:01;;;;;;;7.28;3.95;;;18.70;99.90;;;;;;5094783;28;20208;-83
2021/07/12 01:40:58;;;;;;;4.05;3.70;;;18.80;99.90;;;;;;5086393;28;20178;-83
2021/07/12 01:44:04;;;;;;;7.03;4.85;;;18.80;99.90;;;;;;5070077;28;20274;-84
2021/07/12 01:46:35;;;;;;;4.20;3.88;;;18.80;99.90;;;;;;5075299;28;20179;-83
2021/07/12 01:49:12;;;;;;;7.18;4.57;;;18.80;99.90;;;;;;5076095;28;20171;-84
2021/07/12 01:51:57;;;;;;;5.32;3.75;;;18.80;99.90;;;;;;5058061;28;20227;-84
2021/07/12 01:54:38;;;;;;;9.45;4.35;;;18.80;99.90;;;;;;5090202;28;20651;-84
2021/07/12 01:57:26;;;;;;;7.07;4.05;;;18.90;99.90;;;;;;5096024;28;20224;-84
2021/07/12 02:00:01;;;;;;;3.90;3.60;;;18.80;99.90;;;;;;5077397;28;20174;-84
2021/07/12 02:02:30;;;;;;;3.90;3.50;;;18.80;99.90;;;;;;5061912;28;20180;-84
2021/07/12 02:04:59;;;;;;;6.50;3.40;;;18.80;99.90;;;;;;5069328;28;20191;-83
2021/07/12 02:07:27;;;;;;;3.67;3.47;;;18.80;99.90;;;;;;5095865;28;20648;-84
2021/07/12 02:09:54;;;;;;;10.23;3.20;;;18.80;99.90;;;;;;5065924;28;20171;-84
2021/07/12 02:12:20;;;;;;;9.77;3.22;;;18.80;99.90;;;;;;5076236;28;20171;-85
2021/07/12 02:14:47;;;;;;;3.50;3.15;;;18.80;99.90;;;;;;5075377;28;20624;-84
2021/07/12 02:17:15;;;;;;;5.78;2.92;;;18.90;99.90;;;;;;5095925;28;20154;-84
2021/07/12 02:19:42;;;;;;;3.88;3.35;;;18.90;99.90;;;;;;5084777;28;20723;-84
2021/07/12 02:22:09;;;;;;;3.88;3.38;;;18.80;99.90;;;;;;5057567;28;20197;-84
2021/07/12 02:24:36;;;;;;;5.70;3.80;;;18.80;99.90;;;;;;5064203;28;20224;-84
2021/07/12 02:27:03;;;;;;;3.85;3.35;;;18.90;99.90;;;;;;5041011;28;20189;-84
2021/07/12 02:29:31;;;;;;;6.80;3.47;;;19.00;99.90;;;;;;5084210;28;20224;-84
2021/07/12 02:31:59;;;;;;;4.95;2.80;;;19.00;99.90;;;;;;5077250;28;20174;-84
2021/07/12 02:34:25;;;;;;;7.25;3.85;;;19.00;99.90;;;;;;5080975;28;20194;-84
2021/07/12 02:36:52;;;;;;;5.00;3.40;;;19.00;99.90;;;;;;5075198;28;20166;-84
2021/07/12 02:39:18;;;;;;;2.72;2.53;;;19.00;99.90;;;;;;5075282;28;20171;-84
2021/07/12 02:41:46;;;;;;;2.88;2.67;;;18.90;99.90;;;;;;5057516;28;20214;-84
2021/07/12 02:44:13;;;;;;;3.03;2.83;;;18.90;99.90;;;;;;5087137;28;20178;-84
2021/07/12 02:46:40;;;;;;;2.75;2.53;;;18.90;99.90;;;;;;5095424;28;20162;-84
2021/07/12 02:49:06;;;;;;;2.83;2.60;;;19.00;99.90;;;;;;5093443;28;20176;-83
2021/07/12 02:51:42;;;;;;;3.55;3.25;;;19.10;99.90;;;;;;5085581;28;20628;-84
2021/07/12 02:54:10;;;;;;;3.95;2.60;;;19.10;99.90;;;;;;5076109;28;20171;-84
2021/07/12 02:56:36;;;;;;;3.03;2.72;;;19.20;99.90;;;;;;5057383;28;20175;-84
2021/07/12 02:59:02;;;;;;;3.25;2.95;;;19.20;99.90;;;;;;5056952;28;20175;-84
2021/07/12 03:01:28;;;;;;;6.22;3.25;;;19.20;99.90;;;;;;5074568;28;20245;-84
2021/07/12 03:03:54;;;;;;;4.25;3.00;;;19.20;99.90;;;;;;5049739;28;20240;-84
2021/07/12 03:06:26;;;;;;;3.53;3.00;;;19.20;99.90;;;;;;5056405;28;20175;-84
2021/07/12 03:09:01;;;;;;;4.43;2.97;;;19.20;99.90;;;;;;5076043;28;20162;-84
2021/07/12 03:11:41;;;;;;;6.00;3.97;;;19.20;99.90;;;;;;5074395;28;20733;-84
2021/07/12 03:14:37;;;;;;;5.20;3.10;;;19.30;99.90;;;;;;5084861;28;20169;-84
2021/07/12 03:17:05;;;;;;;8.57;3.60;;;19.30;99.90;;;;;;5094608;28;20166;-84
2021/07/12 03:19:37;;;;;;;3.42;3.13;;;19.30;99.90;;;;;;5075613;28;20166;-84
2021/07/12 03:22:06;;;;;;;3.45;3.00;;;19.30;99.90;;;;;;5094742;28;20622;-84
2021/07/12 03:24:34;;;;;;;11.73;3.83;;;19.30;99.90;;;;;;5093358;28;20189;-84
2021/07/12 03:27:03;;;;;;;3.30;3.00;;;19.30;99.90;;;;;;5094892;28;20185;-84
2021/07/12 03:29:30;;;;;;;7.18;2.90;;;19.10;99.90;;;;;;5091926;28;20174;-84
2021/07/12 03:32:00;;;;;;;3.90;2.67;;;19.10;99.90;;;;;;5094546;28;20170;-84
2021/07/12 03:34:30;;;;;;;11.10;3.08;;;19.00;99.90;;;;;;5063385;28;20179;-84
2021/07/12 03:36:58;;;;;;;5.57;3.00;;;19.00;99.90;;;;;;5073994;28;20170;-84
2021/07/12 03:39:24;;;;;;;6.22;3.20;;;18.90;99.90;;;;;;5039836;28;20183;-83
2021/07/12 03:41:51;;;;;;;5.47;3.05;;;18.90;99.90;;;;;;5073803;28;20244;-84
2021/07/12 03:44:17;;;;;;;3.95;2.40;;;18.90;99.90;;;;;;5067219;28;20183;-83
2021/07/12 03:46:44;;;;;;;2.78;2.58;;;18.80;99.90;;;;;;5055853;28;20174;-84
2021/07/12 03:49:13;;;;;;;3.80;3.50;;;18.60;99.90;;;;;;5073864;28;20301;-84
2021/07/12 03:51:40;;;;;;;4.03;3.20;;;18.50;99.90;;;;;;5055905;28;20655;-84
2021/07/12 03:54:06;;;;;;;4.57;2.60;;;18.30;99.90;;;;;;5039813;28;20262;-84
2021/07/12 03:56:33;;;;;;;4.15;2.95;;;18.30;99.90;;;;;;5055548;28;20258;-84
2021/07/12 03:58:59;;;;;;;3.70;2.75;;;18.30;99.90;;;;;;5073823;28;20221;-83
2021/07/12 04:01:25;;;;;;;3.60;2.90;;;18.40;99.90;;;;;;5073533;28;20668;-84
2021/07/12 04:03:53;;;;;;;5.05;3.17;;;18.50;99.90;;;;;;5039542;28;20202;-84
2021/07/12 04:06:19;;;;;;;6.63;3.45;;;18.40;99.90;;;;;;5055557;28;20539;-84
2021/07/12 04:08:45;;;;;;;3.33;3.03;;;18.40;99.90;;;;;;5073724;28;20194;-83
2021/07/12 04:11:12;;;;;;;4.80;3.38;;;18.40;99.90;;;;;;5073437;28;20201;-84
2021/07/12 04:13:38;;;;;;;4.10;3.80;;;18.50;99.90;;;;;;5060832;28;20174;-84
2021/07/12 04:16:05;;;;;;;3.72;3.35;;;18.50;99.90;;;;;;5074866;28;20273;-84
2021/07/12 04:18:31;;;;;;;6.15;3.40;;;18.60;99.90;;;;;;5075400;28;20276;-84
2021/07/12 04:20:56;;;;;;;6.97;3.63;;;18.70;99.90;;;;;;5062193;28;20206;-84
2021/07/12 04:23:22;;;;;;;4.97;3.85;;;18.90;99.90;;;;;;5056819;28;20525;-84
2021/07/12 04:25:48;;;;;;;6.45;3.97;;;18.90;99.90;;;;;;5038784;28;20639;-84
2021/07/12 04:28:14;;;;;;;5.70;3.38;;;19.00;99.90;;;;;;5055452;28;20186;-84
2021/07/12 04:30:39;;;;;;;5.15;3.40;;;19.10;99.90;;;;;;5055512;28;20649;-84
2021/07/12 04:33:05;;;;;;;3.78;3.25;;;19.10;99.90;;;;;;5074266;28;20191;-84
2021/07/12 04:35:31;;;;;;;4.57;2.83;;;19.10;99.90;;;;;;5053657;28;20174;-84
2021/07/12 04:37:56;;;;;;;3.55;3.35;;;19.20;99.90;;;;;;5073295;28;20162;-84
2021/07/12 04:40:22;;;;;;;4.78;3.45;;;19.30;99.90;;;;;;5088158;28;20190;-84
2021/07/12 04:42:48;;;;;;;7.20;3.08;;;19.40;99.90;;;;;;5078256;28;20617;-84
2021/07/12 04:45:14;;;;;;;2.92;2.72;;;19.50;99.90;;;;;;5060205;28;20264;-84
2021/07/12 04:47:40;;;;;;;4.00;2.90;;;19.70;99.90;;;;;;5078027;28;20189;-84
2021/07/12 04:50:07;;;;;;;5.30;2.97;;;19.80;99.90;;;;;;5042667;28;20205;-84
2021/07/12 04:52:34;;;;;;;3.40;2.70;;;20.00;99.90;;;;;;5059189;28;20183;-84
2021/07/12 04:55:00;;;;;;;5.25;2.72;;;20.20;99.90;;;;;;5059911;28;20197;-84
2021/07/12 04:57:26;;;;;;;3.10;2.90;;;20.30;99.90;;;;;;5059237;28;20186;-85
2021/07/12 04:59:52;;;;;;;4.82;2.85;;;20.60;99.90;;;;;;5074687;28;20174;-84
2021/07/12 05:02:18;;;;;;;5.55;2.75;;;20.70;99.90;;;;;;5097104;28;20205;-84
2021/07/12 05:04:44;;;;;;;5.55;2.45;;;20.80;99.90;;;;;;5081350;28;20878;-84
2021/07/12 05:07:13;;;;;;;2.25;2.10;;;20.70;99.90;;;;;;5074355;28;20311;-84
2021/07/12 05:09:39;;;;;;;2.95;2.20;;;20.80;99.90;;;;;;5048256;28;20663;-84
2021/07/12 05:12:08;;;;;;;2.47;2.03;;;21.00;99.90;;;;;;5068966;28;20534;-84
2021/07/12 05:14:37;;;;;;;2.50;2.20;;;21.30;99.90;;;;;;5066647;28;20178;-83
2021/07/12 05:17:04;;;;;;;3.42;1.95;;;21.60;99.90;;;;;;5084894;28;20167;-84
2021/07/12 05:19:29;;;;;;;7.18;2.25;;;21.90;99.90;;;;;;5076808;28;20253;-83
2021/07/12 05:21:55;;;;;;;3.55;2.28;;;22.30;99.90;;;;;;5058705;28;20678;-84
2021/07/12 05:24:21;;;;;;;2.17;1.75;;;23.20;99.90;;;;;;5068586;28;20311;-84
2021/07/12 05:26:47;;;;;;;6.38;2.10;;;24.00;99.90;;;;;;5062195;28;20182;-84
2021/07/12 05:29:13;;;;;;;5.68;2.15;;;24.40;99.90;;;;;;5067113;28;20633;-84
2021/07/12 05:31:38;;;;;;;2.08;1.50;;;24.30;99.90;;;;;;5090810;28;20187;-84
2021/07/12 05:34:04;;;;;;;1.42;1.33;;;24.20;99.90;;;;;;5095551;28;20204;-84
2021/07/12 05:36:30;;;;;;;1.83;1.55;;;24.20;99.90;;;;;;5078307;28;20174;-84
2021/07/12 05:38:56;;;;;;;11.48;1.65;;;24.10;99.90;;;;;;5077442;28;20182;-84
2021/07/12 05:41:22;;;;;;;3.60;1.40;;;24.10;99.90;;;;;;5095452;28;20196;-84
2021/07/12 05:43:47;;;;;;;5.10;1.73;;;24.30;99.90;;;;;;5065227;28;20178;-84
2021/07/12 05:46:13;;;;;;;6.88;2.13;;;24.50;99.90;;;;;;5076176;28;20236;-84
2021/07/12 05:48:39;;;;;;;5.40;1.65;;;24.50;99.90;;;;;;5058263;28;20189;-84
2021/07/12 05:51:05;;;;;;;2.30;1.50;;;24.50;99.90;;;;;;5041773;28;20197;-84
2021/07/12 05:53:30;;;;;;;10.77;1.88;;;24.50;99.90;;;;;;5059740;28;20253;-84
2021/07/12 05:55:56;;;;;;;6.55;1.45;;;24.20;99.90;;;;;;5096137;28;20178;-84
2021/07/12 05:58:21;;;;;;;2.05;1.60;;;24.00;99.90;;;;;;5095795;28;20274;-84
2021/07/12 06:00:47;;;;;;;2.10;1.70;;;24.30;99.90;;;;;;5095997;28;20201;-84
2021/07/12 06:03:13;;;;;;;4.22;1.42;;;24.60;99.90;;;;;;5093427;28;20266;-84
2021/07/12 06:05:38;;;;;;;1.65;1.40;;;24.50;99.90;;;;;;5044336;28;20194;-84
2021/07/12 06:08:04;;;;;;;4.38;1.60;;;24.70;99.90;;;;;;5041199;28;20179;-84
2021/07/12 06:10:30;;;;;;;4.97;1.45;;;25.90;99.90;;;;;;5057802;28;20604;-84
2021/07/12 06:12:56;;;;;;;3.33;1.58;;;28.30;99.90;;;;;;5067513;28;20178;-84
2021/07/12 06:15:22;;;;;;;2.92;1.48;;;29.50;99.90;;;;;;5060452;28;20533;-84
2021/07/12 06:17:47;;;;;;;1.55;1.23;;;29.90;99.90;;;;;;5057558;28;20171;-84
2021/07/12 06:20:16;;;;;;;3.95;1.33;;;29.70;99.90;;;;;;5057548;28;20177;-85
2021/07/12 06:22:43;;;;;;;4.72;1.50;;;29.50;99.90;;;;;;5041556;28;20229;-85
2021/07/12 06:25:09;;;;;;;9.27;1.75;;;29.30;99.90;;;;;;5072474;28;20182;-84
2021/07/12 06:27:35;;;;;;;9.82;1.50;;;29.20;99.90;;;;;;5077456;28;20516;-85
2021/07/12 06:30:01;;;;;;;2.35;1.30;;;29.50;99.90;;;;;;5077552;28;20177;-85
2021/07/12 06:32:26;;;;;;;2.05;0.90;;;29.50;99.90;;;;;;5040995;28;20213;-84
2021/07/12 06:34:52;;;;;;;7.18;1.55;;;29.60;99.90;;;;;;5073985;28;20627;-84
2021/07/12 06:37:17;;;;;;;1.92;1.10;;;30.40;99.90;;;;;;5094459;28;20256;-85
2021/07/12 06:39:43;;;;;;;2.22;1.05;;;31.40;99.90;;;;;;5060472;28;20177;-84
2021/07/12 06:42:09;;;;;;;3.53;1.00;;;31.90;99.90;;;;;;5076052;28;20201;-85
2021/07/12 06:44:35;;;;;;;2.00;1.00;;;32.00;99.90;;;;;;5095085;28;20223;-85
2021/07/12 06:47:00;;;;;;;1.77;1.02;;;32.50;99.90;;;;;;5082886;28;20174;-85
2021/07/12 06:49:26;;;;;;;3.13;1.30;;;32.30;99.90;;;;;;5058726;28;20235;-85
2021/07/12 06:51:52;;;;;;;4.60;1.30;;;32.00;99.90;;;;;;5077109;28;20652;-85
2021/07/12 06:54:18;;;;;;;8.13;1.17;;;31.40;99.90;;;;;;5086108;28;20174;-86
2021/07/12 06:56:43;;;;;;;6.13;1.10;;;30.80;99.90;;;;;;5074947;28;20186;-85
2021/07/12 06:59:09;;;;;;;3.97;1.00;;;30.40;99.90;;;;;;5056466;28;20174;-85
2021/07/12 07:01:35;;;;;;;2.22;1.00;;;30.00;99.90;;;;;;5023831;28;20202;-85
2021/07/12 07:04:00;;;;;;;2.78;1.10;;;29.90;99.90;;;;;;5029395;28;20217;-85
2021/07/12 07:06:26;;;;;;;0.80;0.80;;;30.00;99.90;;;;;;5023350;28;20178;-84
2021/07/12 07:08:52;;;;;;;1.98;1.00;;;29.50;99.90;;;;;;5064871;28;20178;-85
2021/07/12 07:11:17;;;;;;;3.33;0.98;;;29.90;99.90;;;;;;5039255;28;20182;-85
2021/07/12 07:13:43;;;;;;;3.47;1.08;;;30.40;99.90;;;;;;5056441;28;20170;-85
2021/07/12 07:16:08;;;;;;;1.88;1.10;;;30.70;99.90;;;;;;5060173;28;20175;-85
2021/07/12 07:18:34;;;;;;;0.93;0.88;;;31.00;99.90;;;;;;5040648;28;20685;-83
2021/07/12 07:21:00;;;;;;;5.70;1.02;;;31.20;99.90;;;;;;5040897;28;20189;-82
2021/07/12 07:23:27;;;;;;;7.93;1.55;;;31.00;99.90;;;;;;5074154;28;20170;-83
2021/07/12 07:25:52;;;;;;;4.88;0.80;;;30.90;99.90;;;;;;5074282;28;20197;-82
2021/07/12 07:28:18;;;;;;;2.05;0.88;;;30.80;99.90;;;;;;5094202;28;20174;-83
2021/07/12 07:30:46;;;;;;;4.35;1.20;;;31.50;99.90;;;;;;5076466;28;20617;-83
2021/07/12 07:33:11;;;;;;;1.20;0.88;;;31.80;99.90;;;;;;5090454;28;20186;-83
2021/07/12 07:35:38;;;;;;;2.10;1.30;;;32.10;99.90;;;;;;5060605;28;20814;-84
2021/07/12 07:38:04;;;;;;;0.95;0.90;;;32.40;99.90;;;;;;5075102;28;20181;-84
2021/07/12 07:40:29;;;;;;;1.58;0.90;;;33.40;99.90;;;;;;5028214;28;20198;-85
2021/07/12 07:42:55;;;;;;;1.92;0.95;;;34.30;99.90;;;;;;5078397;28;20182;-85
2021/07/12 07:45:21;;;;;;;4.60;1.15;;;35.10;99.90;;;;;;5074043;28;20185;-85
2021/07/12 07:47:47;;;;;;;2.67;1.23;;;35.40;99.90;;;;;;5074816;28;20602;-84
2021/07/12 07:50:14;;;;;;;2.63;0.93;;;34.70;99.90;;;;;;5074895;28;20174;-83
2021/07/12 07:52:40;;;;;;;1.98;0.90;;;33.40;99.90;;;;;;5057125;28;20208;-83
2021/07/12 07:55:08;;;;;;;4.18;0.93;;;32.30;99.90;;;;;;5075756;28;20201;-84
2021/07/12 07:57:36;;;;;;;2.55;1.13;;;31.30;99.90;;;;;;5075907;28;20188;-84
2021/07/12 08:00:08;;;;;;;2.30;1.00;;;30.90;99.90;;;;;;5059018;28;20204;-84
2021/07/12 08:02:34;;;;;;;5.78;1.20;;;30.30;99.90;;;;;;5074138;28;20182;-84
2021/07/12 08:05:01;;;;;;;4.65;1.38;;;29.80;99.90;;;;;;5064053;28;20206;-84
2021/07/12 08:07:26;;;;;;;2.05;1.10;;;29.90;99.90;;;;;;5066653;28;20254;-84
2021/07/12 08:09:52;;;;;;;1.38;1.20;;;29.90;99.90;;;;;;5075553;28;20654;-84
2021/07/12 08:12:17;;;;;;;2.72;1.13;;;29.90;99.90;;;;;;5075709;28;20177;-84
2021/07/12 08:14:44;;;;;;;5.13;1.20;;;30.00;99.90;;;;;;5049750;28;20243;-84
2021/07/12 08:17:10;;;;;;;4.13;1.00;;;30.00;99.90;;;;;;5079881;28;20214;-82
2021/07/12 08:19:35;;;;;;;1.83;0.88;;;29.60;99.90;;;;;;5092065;28;20209;-83
2021/07/12 08:22:01;;;;;;;2.65;1.02;;;29.60;99.90;;;;;;5084108;28;20576;-84
2021/07/12 08:24:26;;;;;;;1.05;0.90;;;29.50;99.90;;;;;;5041021;28;20174;-83
2021/07/12 08:26:52;;;;;;;3.67;1.23;;;29.50;99.90;;;;;;5055472;28;20178;-83
2021/07/12 08:29:18;;;;;;;1.90;1.20;;;29.70;99.90;;;;;;5057537;28;20174;-83
2021/07/12 08:31:46;;;;;;;1.13;0.90;;;30.00;99.90;;;;;;5057548;28;20199;-83
2021/07/12 08:34:12;;;;;;;1.67;1.00;;;30.20;99.90;;;;;;5073707;28;20185;-83
2021/07/12 08:36:38;;;;;;;1.27;0.95;;;30.30;99.90;;;;;;5057699;28;20170;-83
2021/07/12 08:39:04;;;;;;;1.60;1.02;;;30.80;99.90;;;;;;5054787;28;20190;-82
2021/07/12 08:41:32;;;;;;;2.50;1.00;;;31.30;99.90;;;;;;5058263;28;20292;-81
2021/07/12 08:43:57;;;;;;;2.15;1.23;;;31.60;99.90;;;;;;5093729;28;20170;-82
2021/07/12 08:46:23;;;;;;;1.38;1.15;;;32.10;99.90;;;;;;5091262;28;20177;-83
2021/07/12 08:48:49;;;;;;;2.67;1.13;;;32.40;99.90;;;;;;5075226;28;20265;-83
2021/07/12 08:51:15;;;;;;;6.90;1.30;;;32.80;99.90;;;;;;5075078;28;20181;-83
2021/07/12 08:53:41;;;;;;;3.88;1.00;;;32.70;99.90;;;;;;5074913;28;20531;-84
2021/07/12 08:56:06;;;;;;;5.10;1.38;;;32.40;99.90;;;;;;5074527;28;20181;-83
2021/07/12 08:58:34;;;;;;;1.25;1.02;;;31.90;99.90;;;;;;5093665;28;20268;-83
2021/07/12 09:01:03;;;;;;;4.18;1.00;;;31.30;99.90;;;;;;5092558;28;20235;-80
2021/07/12 09:03:34;;;;;;;1.35;1.00;;;30.90;99.90;;;;;;5074459;28;20185;-84
2021/07/12 09:06:10;;;;;;;4.18;0.90;;;30.60;99.90;;;;;;5076094;28;20162;-82
2021/07/12 09:08:37;;;;;;;2.70;1.10;;;30.30;99.90;;;;;;5093050;28;20253;-84
2021/07/12 09:11:11;;;;;;;3.80;1.05;;;29.90;99.90;;;;;;5081319;28;20577;-86
2021/07/12 09:13:44;;;;;;;3.35;1.17;;;29.70;99.90;;;;;;5082911;28;20174;-86
2021/07/12 09:16:38;;;;;;;3.80;1.23;;;29.70;99.90;;;;;;5076551;28;20166;-87
2021/07/12 09:19:24;;;;;;;1.50;1.08;;;29.50;99.90;;;;;;5067033;28;20178;-86
2021/07/12 09:21:55;;;;;;;2.15;1.33;;;29.10;99.90;;;;;;5072104;28;20218;-87
2021/07/12 09:24:23;;;;;;;1.88;1.02;;;28.90;99.90;;;;;;5055828;28;20617;-88
2021/07/12 09:26:55;;;;;;;3.17;1.20;;;28.80;99.90;;;;;;5056651;28;20178;-85
2021/07/12 09:29:36;;;;;;;2.97;1.38;;;28.60;99.90;;;;;;5076002;28;20156;-88
2021/07/12 09:32:07;;;;;;;4.00;1.10;;;28.50;99.90;;;;;;5090069;28;20235;-87
2021/07/12 09:34:33;;;;;;;1.15;1.00;;;28.50;99.90;;;;;;5089393;28;20166;-88
2021/07/12 09:36:58;;;;;;;6.28;1.20;;;28.60;99.90;;;;;;5079717;28;20184;-88
2021/07/12 09:39:33;;;;;;;7.65;1.27;;;28.70;99.90;;;;;;5062810;28;20171;-88
2021/07/12 09:42:09;;;;;;;2.45;1.23;;;28.60;99.90;;;;;;5059411;28;20189;-88
2021/07/12 09:44:38;;;;;;;1.52;1.25;;;28.80;99.90;;;;;;5059854;28;20163;-88
2021/07/12 09:47:06;;;;;;;2.30;1.20;;;29.00;99.90;;;;;;5060026;28;20170;-86
2021/07/12 09:49:32;;;;;;;4.65;1.25;;;29.20;99.90;;;;;;5079834;28;20172;-89
2021/07/12 09:52:02;;;;;;;1.60;1.40;;;29.20;99.90;;;;;;5066629;28;20238;-89
2021/07/12 09:54:33;;;;;;;1.25;1.13;;;29.00;99.90;;;;;;5082093;28;20166;-88
2021/07/12 09:57:04;;;;;;;2.47;1.20;;;28.60;99.90;;;;;;5079605;28;20187;-89
2021/07/12 09:59:30;;;;;;;1.98;1.17;;;28.40;99.90;;;;;;5078457;28;20154;-88
2021/07/12 10:01:56;;;;;;;2.05;1.33;;;28.30;99.90;;;;;;5071771;28;20201;-88
2021/07/12 10:04:23;;;;;;;2.53;2.20;;;28.20;99.90;;;;;;5066548;28;20179;-88
2021/07/12 10:06:50;;;;;;;3.67;0.98;;;28.30;99.90;;;;;;5059100;28;20175;-89
2021/07/12 10:09:21;;;;;;;3.35;1.20;;;28.50;99.90;;;;;;5069615;28;20547;-88
2021/07/12 10:11:56;;;;;;;1.05;1.02;;;28.40;99.90;;;;;;5097123;28;20158;-88
2021/07/12 10:14:23;;;;;;;4.38;1.05;;;28.40;99.90;;;;;;5080558;28;20561;-88
2021/07/12 10:16:50;;;;;;;1.50;1.40;;;28.50;99.90;;;;;;5081236;28;20688;-88
2021/07/12 10:19:16;;;;;;;4.32;1.27;;;28.60;99.90;;;;;;5080737;28;20170;-89
2021/07/12 10:21:47;;;;;;;2.65;1.35;;;28.70;99.90;;;;;;5063605;28;20202;-87
2021/07/12 10:24:15;;;;;;;1.25;1.08;;;28.80;99.90;;;;;;5078933;28;20170;-88
2021/07/12 10:26:50;;;;;;;2.05;1.20;;;29.20;99.90;;;;;;5078545;28;20204;-87
2021/07/12 10:29:30;;;;;;;1.38;1.27;;;29.50;99.90;;;;;;5083815;28;20158;-88
2021/07/12 10:32:17;;;;;;;1.90;1.40;;;29.70;99.90;;;;;;5070533;28;20166;-88
2021/07/12 10:34:55;;;;;;;1.58;1.02;;;30.20;99.90;;;;;;5092546;28;20220;-88
2021/07/12 10:37:30;;;;;;;4.57;1.00;;;30.40;99.90;;;;;;5096525;28;20155;-86
2021/07/12 10:40:07;;;;;;;2.92;1.08;;;30.50;99.90;;;;;;5094410;28;20557;-83
2021/07/12 10:42:45;;;;;;;2.65;1.15;;;30.20;99.90;;;;;;5095443;28;20247;-83
2021/07/12 10:45:14;;;;;;;1.85;0.88;;;30.00;99.90;;;;;;5095580;28;20177;-83
2021/07/12 10:47:43;;;;;;;2.05;0.90;;;29.80;99.90;;;;;;5094188;28;20249;-82
2021/07/12 10:50:34;;;;;;;1.38;1.20;;;29.90;99.90;;;;;;5057301;28;20163;-83
2021/07/12 10:53:02;;;;;;;3.28;1.23;;;29.80;99.90;;;;;;5075457;28;20645;-83
2021/07/12 10:55:33;;;;;;;5.13;1.80;;;30.00;99.90;;;;;;5075412;28;20170;-82
2021/07/12 10:58:26;;;;;;;2.28;2.00;;;29.80;99.90;;;;;;5056988;28;20244;-82
2021/07/12 11:00:53;;;;;;;1.77;1.50;;;29.70;99.90;;;;;;5074736;28;20678;-83
2021/07/12 11:03:35;;;;;;;1.50;1.40;;;29.60;99.90;;;;;;5075463;28;20170;-87
2021/07/12 11:06:02;;;;;;;2.17;1.50;;;29.70;99.90;;;;;;5058031;28;20642;-87
2021/07/12 11:08:49;;;;;;;1.40;1.30;;;29.90;99.90;;;;;;5051505;28;20178;-86
2021/07/12 11:11:18;;;;;;;1.55;1.20;;;29.80;99.90;;;;;;5095649;28;20688;-85
2021/07/12 11:14:00;;;;;;;1.17;1.08;;;29.70;99.90;;;;;;5077646;28;20643;-86
2021/07/12 11:16:42;;;;;;;2.05;1.30;;;29.20;99.90;;;;;;5095590;28;20162;-87
2021/07/12 11:19:31;;;;;;;3.25;1.30;;;29.20;99.90;;;;;;5077803;28;20166;-87
2021/07/12 11:22:15;;;;;;;1.20;1.05;;;28.90;99.90;;;;;;5077657;28;20252;-88
2021/07/12 11:25:37;;;;;;;1.50;1.23;;;28.40;99.90;;;;;;5077082;28;20174;-86
2021/07/12 11:28:16;;;;;;;3.20;1.45;;;28.20;99.90;;;;;;4988803;28;20174;-87
2021/07/12 11:30:42;;;;;;;1.02;0.82;;;28.10;99.90;;;;;;4971967;28;20177;-87
2021/07/12 11:33:08;;;;;;;1.60;1.50;;;28.10;99.90;;;;;;5015828;28;20211;-86
2021/07/12 11:35:34;;;;;;;4.20;1.42;;;28.20;99.90;;;;;;5057275;28;20162;-87
2021/07/12 11:38:05;;;;;;;2.72;1.70;;;28.20;99.90;;;;;;5041817;28;20171;-88
2021/07/12 11:40:31;;;;;;;4.32;1.20;;;28.10;99.90;;;;;;5057273;28;20185;-87
2021/07/12 11:42:57;;;;;;;4.30;1.25;;;27.90;99.90;;;;;;5074983;28;20612;-81
2021/07/12 11:45:25;;;;;;;3.20;1.50;;;27.80;99.90;;;;;;5069776;28;20187;-79
2021/07/12 11:47:55;;;;;;;8.85;1.65;;;27.70;99.90;;;;;;5094863;28;20202;-88
2021/07/12 11:50:24;;;;;;;2.25;1.52;;;27.70;99.90;;;;;;5094777;28;20162;-87
2021/07/12 11:52:55;;;;;;;5.75;1.27;;;27.90;99.90;;;;;;5093587;28;20172;-86
2021/07/12 11:55:26;;;;;;;2.38;1.40;;;27.80;99.90;;;;;;5094818;28;20238;-85
2021/07/12 11:58:02;;;;;;;2.47;1.33;;;27.60;99.90;;;;;;5093785;28;20193;-85
2021/07/12 12:00:28;;;;;;;1.50;1.40;;;27.30;99.90;;;;;;5094889;28;20168;-86
2021/07/12 12:03:08;;;;;;;3.05;1.42;;;27.30;99.90;;;;;;5094384;28;20162;-85
2021/07/12 12:05:36;;;;;;;4.18;1.35;;;27.00;99.90;;;;;;5094079;28;20599;-86
2021/07/12 12:08:03;;;;;;;5.18;1.80;;;27.00;99.90;;;;;;5076871;28;20181;-86
2021/07/12 12:10:33;;;;;;;1.70;1.35;;;26.50;99.90;;;;;;5077073;28;20166;-85
2021/07/12 12:13:10;;;;;;;5.80;1.45;;;26.20;99.90;;;;;;5076503;28;20579;-86
2021/07/12 12:15:38;;;;;;;2.25;1.60;;;25.90;99.90;;;;;;5094685;28;20154;-85
2021/07/12 12:18:27;;;;;;;4.18;1.40;;;26.00;99.90;;;;;;5091495;28;20169;-86
2021/07/12 12:20:57;;;;;;;10.32;1.75;;;26.10;99.90;;;;;;5056254;28;20241;-86
2021/07/12 12:23:41;;;;;;;12.45;2.60;;;26.00;99.90;;;;;;5074171;28;20166;-85
2021/07/12 12:26:13;;;;;;;6.85;2.25;;;25.50;99.90;;;;;;5076314;28;20182;-85
2021/07/12 12:28:51;;;;;;;6.63;2.75;;;24.60;99.90;;;;;;5073801;28;20163;-81
2021/07/12 12:31:29;;;;;;;7.03;3.10;;;23.80;99.90;;;;;;5055472;28;20261;-78
2021/07/12 12:34:03;;;;;;;9.60;3.50;;;23.10;99.90;;;;;;5073565;28;20155;-78
2021/07/12 12:36:32;;;;;;;5.05;3.00;;;22.60;99.90;;;;;;5073528;28;20158;-78
2021/07/12 12:39:09;;;;;;;5.15;2.75;;;22.20;99.90;;;;;;5073711;28;20166;-77
2021/07/12 12:41:46;;;;;;;5.88;3.35;;;21.60;99.90;;;;;;5055827;28;20194;-77
2021/07/12 12:44:18;;;;;;;6.00;3.97;;;21.10;99.90;;;;;;5093980;28;20233;-78
2021/07/12 12:46:53;;;;;;;6.30;3.67;;;20.70;99.90;;;;;;5075371;28;20496;-77
2021/07/12 12:49:22;;;;;;;5.80;3.20;;;20.60;99.90;;;;;;5093513;28;20606;-80
2021/07/12 12:51:55;;;;;;;7.72;3.75;;;20.50;99.90;;;;;;5093522;28;20290;-77
2021/07/12 12:54:21;;;;;;;6.75;3.20;;;20.60;99.90;;;;;;5075355;28;20158;-80
2021/07/12 12:56:52;;;;;;;4.95;3.03;;;20.50;99.90;;;;;;5071791;28;20512;-79
2021/07/12 12:59:38;;;;;;;8.17;3.50;;;20.50;99.90;;;;;;5075055;28;20484;-79